Time;durP1;ratioP1;P1;durP2;ratioP2;P2;SDS_P1;SDS_P2;PMS_P1;PMS_P2;Temp;Humidity;BMP_temperature;BMP_pressure;BME280_temperature;BME280_humidity;BME280_pressure;Samples;Min_cycle;Max_cycle;Signal;HPM_P1;HPM_P2
2021/06/17 00:00:21;;;;;;;5.40;3.33;;;23.20;63.10;;;;;;4673073;30;20064;-72
2021/06/17 00:02:49;;;;;;;4.53;3.60;;;23.20;63.20;;;;;;4688040;30;20068;-72
2021/06/17 00:05:18;;;;;;;3.78;2.88;;;23.10;63.20;;;;;;4667372;30;20073;-72
2021/06/17 00:07:47;;;;;;;4.00;2.83;;;23.10;63.30;;;;;;4671413;30;20049;-72
2021/06/17 00:10:29;;;;;;;4.20;3.03;;;23.00;63.30;;;;;;4674405;30;20050;-72
2021/06/17 00:12:59;;;;;;;3.75;2.92;;;23.10;63.40;;;;;;4689407;30;20064;-72
2021/06/17 00:15:28;;;;;;;3.85;2.63;;;23.00;63.40;;;;;;4690485;30;20057;-72
2021/06/17 00:17:55;;;;;;;3.67;2.63;;;23.00;63.50;;;;;;4676271;30;20062;-72
2021/06/17 00:20:23;;;;;;;4.18;2.95;;;22.90;63.50;;;;;;4694113;30;20120;-72
2021/06/17 00:22:51;;;;;;;4.00;2.63;;;22.90;63.50;;;;;;4702149;30;20123;-72
2021/06/17 00:25:19;;;;;;;3.72;3.08;;;23.00;63.70;;;;;;4674973;30;20053;-72
2021/06/17 00:27:46;;;;;;;3.70;2.80;;;22.90;63.70;;;;;;4675715;30;20100;-72
2021/06/17 00:30:15;;;;;;;3.28;2.58;;;22.90;63.70;;;;;;4693315;30;20049;-72
2021/06/17 00:32:42;;;;;;;4.35;2.58;;;22.90;63.80;;;;;;4691996;30;20080;-72
2021/06/17 00:35:10;;;;;;;4.22;3.30;;;22.90;63.90;;;;;;4675481;30;20089;-72
2021/06/17 00:37:38;;;;;;;3.60;2.92;;;22.80;63.90;;;;;;4690043;30;20041;-72
2021/06/17 00:40:08;;;;;;;3.70;3.15;;;22.80;64.10;;;;;;4667834;30;20057;-72
2021/06/17 00:42:37;;;;;;;4.22;3.38;;;22.80;64.20;;;;;;4693534;30;20084;-72
2021/06/17 00:45:08;;;;;;;3.92;3.00;;;22.80;64.20;;;;;;4680957;30;20615;-72
2021/06/17 00:47:36;;;;;;;;;;;22.70;64.30;;;;;;4676410;30;20057;-72
2021/06/17 00:50:06;;;;;;;4.95;3.20;;;22.70;64.20;;;;;;4665544;30;20014;-72
2021/06/17 00:52:34;;;;;;;4.80;3.53;;;22.70;64.50;;;;;;4673762;30;20492;-72
2021/06/17 00:55:01;;;;;;;4.25;3.03;;;22.70;64.60;;;;;;4675162;30;20048;-71
2021/06/17 00:57:29;;;;;;;3.85;3.25;;;22.60;64.70;;;;;;4690956;30;20501;-72
2021/06/17 00:59:56;;;;;;;3.60;2.92;;;22.60;64.70;;;;;;4667878;30;20194;-72
2021/06/17 01:02:23;;;;;;;4.93;3.45;;;22.60;64.80;;;;;;4671614;30;20053;-72
2021/06/17 01:04:50;;;;;;;5.18;3.40;;;22.60;65.00;;;;;;4674952;30;20061;-72
2021/06/17 01:07:34;;;;;;;4.68;3.50;;;22.60;65.20;;;;;;4669682;30;20041;-72
2021/06/17 01:10:12;;;;;;;4.50;3.63;;;22.60;65.20;;;;;;4670046;30;20081;-72
2021/06/17 01:12:52;;;;;;;4.05;3.22;;;22.50;65.40;;;;;;4686017;30;20064;-72
2021/06/17 01:15:21;;;;;;;4.53;3.40;;;22.50;65.50;;;;;;4688016;30;20595;-72
2021/06/17 01:17:56;;;;;;;4.65;3.35;;;22.50;65.60;;;;;;4666769;30;20052;-72
2021/06/17 01:20:39;;;;;;;5.25;3.40;;;22.50;65.80;;;;;;4673281;30;20053;-72
2021/06/17 01:23:26;;;;;;;;;;;22.50;65.80;;;;;;4690422;30;20046;-72
2021/06/17 01:26:16;;;;;;;4.82;3.00;;;22.40;65.80;;;;;;4690211;30;19938;-72
2021/06/17 01:28:47;;;;;;;3.78;3.03;;;22.30;65.80;;;;;;4690343;30;20653;-72
2021/06/17 01:31:18;;;;;;;3.15;2.83;;;22.30;66.00;;;;;;4688421;30;20049;-71
2021/06/17 01:33:47;;;;;;;4.97;3.17;;;22.30;66.10;;;;;;4674489;30;20065;-72
2021/06/17 01:36:20;;;;;;;3.72;3.00;;;22.20;66.10;;;;;;4665439;30;20064;-72
2021/06/17 01:38:49;;;;;;;;;;;22.30;66.20;;;;;;4661983;30;20064;-72
2021/06/17 01:41:20;;;;;;;4.38;3.22;;;22.20;66.10;;;;;;4676059;30;19982;-72
2021/06/17 01:43:48;;;;;;;3.90;3.30;;;22.20;66.40;;;;;;4674248;30;20061;-72
2021/06/17 01:46:15;;;;;;;5.30;3.50;;;22.20;66.50;;;;;;4690571;30;20160;-72
2021/06/17 01:48:44;;;;;;;3.88;2.90;;;22.20;66.50;;;;;;4690479;30;20128;-71
2021/06/17 01:51:14;;;;;;;5.30;3.33;;;22.20;66.60;;;;;;4666986;30;20077;-72
2021/06/17 01:53:41;;;;;;;3.75;3.00;;;22.20;66.60;;;;;;4672350;30;20099;-71
2021/06/17 01:56:09;;;;;;;4.05;3.03;;;22.10;66.60;;;;;;4662506;30;20101;-72
2021/06/17 01:58:37;;;;;;;3.67;3.00;;;22.10;66.70;;;;;;4670796;30;21440;-72
2021/06/17 02:01:05;;;;;;;4.72;3.20;;;22.10;66.80;;;;;;4671516;30;20046;-72
2021/06/17 02:03:33;;;;;;;4.75;3.20;;;22.10;66.90;;;;;;4676571;30;20060;-72
2021/06/17 02:06:01;;;;;;;4.88;3.60;;;22.10;67.00;;;;;;4660071;30;20141;-72
2021/06/17 02:08:28;;;;;;;4.97;3.30;;;22.00;67.00;;;;;;4684001;30;20446;-72
2021/06/17 02:10:55;;;;;;;5.28;3.95;;;22.00;67.10;;;;;;4687000;30;20120;-72
2021/06/17 02:13:23;;;;;;;4.75;3.67;;;22.00;67.10;;;;;;4673806;30;21503;-72
2021/06/17 02:15:51;;;;;;;4.22;3.50;;;22.00;67.30;;;;;;4675606;30;20554;-72
2021/06/17 02:18:24;;;;;;;3.70;3.30;;;22.00;67.30;;;;;;4665228;30;20053;-72
2021/06/17 02:20:54;;;;;;;4.55;3.13;;;22.00;67.30;;;;;;4690431;30;20061;-72
2021/06/17 02:23:23;;;;;;;4.60;3.50;;;22.00;67.40;;;;;;4673951;30;20050;-71
2021/06/17 02:25:53;;;;;;;4.80;3.50;;;22.00;67.40;;;;;;4671728;30;20487;-72
2021/06/17 02:28:23;;;;;;;5.15;3.92;;;22.00;68.20;;;;;;4678482;30;20057;-72
2021/06/17 02:30:52;;;;;;;4.07;3.42;;;21.90;67.60;;;;;;4691507;30;20045;-72
2021/06/17 02:33:21;;;;;;;6.13;4.18;;;21.90;67.70;;;;;;4682450;30;20100;-72
2021/06/17 02:35:52;;;;;;;4.82;3.63;;;21.90;68.40;;;;;;4677836;30;20049;-72
2021/06/17 02:38:26;;;;;;;5.40;4.05;;;21.90;67.80;;;;;;4689144;30;20503;-72
2021/06/17 02:40:58;;;;;;;4.85;3.88;;;21.90;67.90;;;;;;4692269;30;20108;-72
2021/06/17 02:43:28;;;;;;;5.45;4.07;;;21.90;68.00;;;;;;4677411;30;20050;-72
2021/06/17 02:45:55;;;;;;;4.93;4.15;;;21.90;68.00;;;;;;4680857;30;20042;-72
2021/06/17 02:48:22;;;;;;;5.03;4.13;;;21.90;67.90;;;;;;4679571;30;20056;-72
2021/06/17 02:50:50;;;;;;;4.82;3.80;;;21.90;67.90;;;;;;4663163;30;20104;-72
2021/06/17 02:53:18;;;;;;;5.20;4.30;;;21.90;68.00;;;;;;4667485;30;20057;-72
2021/06/17 02:55:45;;;;;;;4.43;4.00;;;21.90;68.10;;;;;;4675344;30;20194;-72
2021/06/17 02:58:49;;;;;;;5.80;4.55;;;21.80;68.20;;;;;;4691003;30;20136;-72
2021/06/17 03:01:51;;;;;;;5.50;4.35;;;21.90;68.20;;;;;;4667506;30;20104;-72
2021/06/17 03:04:27;;;;;;;4.85;3.95;;;21.90;68.20;;;;;;4686405;30;20128;-73
2021/06/17 03:06:55;;;;;;;6.22;3.80;;;21.90;68.20;;;;;;4671781;30;20120;-72
2021/06/17 03:09:53;;;;;;;6.38;4.88;;;21.90;68.30;;;;;;4667147;30;20065;-73
2021/06/17 03:12:23;;;;;;;5.88;4.68;;;21.90;68.10;;;;;;4670293;30;20062;-73
2021/06/17 03:14:53;;;;;;;5.63;4.68;;;21.90;68.20;;;;;;4675800;30;20496;-73
2021/06/17 03:17:21;;;;;;;5.25;4.55;;;21.90;68.20;;;;;;4659665;30;20062;-73
2021/06/17 03:19:52;;;;;;;5.85;4.95;;;22.00;68.20;;;;;;4675094;30;20045;-73
2021/06/17 03:22:24;;;;;;;5.47;4.65;;;22.00;68.10;;;;;;4674833;30;20077;-73
2021/06/17 03:24:54;;;;;;;5.85;4.50;;;22.10;68.10;;;;;;4676758;30;20050;-73
2021/06/17 03:27:23;;;;;;;5.63;4.43;;;22.10;67.90;;;;;;4674554;30;20050;-73
2021/06/17 03:29:51;;;;;;;5.70;5.07;;;22.10;67.90;;;;;;4681804;30;20077;-73
2021/06/17 03:32:20;;;;;;;6.28;5.32;;;22.20;67.90;;;;;;4674637;30;20054;-73
2021/06/17 03:34:48;;;;;;;5.78;4.78;;;22.20;67.80;;;;;;4674405;30;20132;-73
2021/06/17 03:37:18;;;;;;;5.93;4.93;;;22.20;67.80;;;;;;4673546;30;20115;-73
2021/06/17 03:39:47;;;;;;;6.05;4.60;;;22.20;67.80;;;;;;4675074;30;20123;-73
2021/06/17 03:42:16;;;;;;;5.72;4.93;;;22.30;67.80;;;;;;4674052;30;20112;-73
2021/06/17 03:44:44;;;;;;;6.28;5.00;;;22.30;67.80;;;;;;4673450;30;20050;-73
2021/06/17 03:47:11;;;;;;;5.70;4.93;;;22.30;67.90;;;;;;4672812;30;20125;-73
2021/06/17 03:49:41;;;;;;;5.30;4.80;;;22.30;67.90;;;;;;4664719;30;22090;-73
2021/06/17 03:52:08;;;;;;;5.93;4.78;;;22.30;68.00;;;;;;4673794;30;20046;-73
2021/06/17 03:54:36;;;;;;;5.78;4.63;;;22.30;68.00;;;;;;4659544;30;20136;-73
2021/06/17 03:57:05;;;;;;;7.10;5.22;;;22.30;68.00;;;;;;4672187;30;20061;-73
2021/06/17 03:59:36;;;;;;;6.78;4.70;;;22.30;68.00;;;;;;4671113;30;20084;-73
2021/06/17 04:02:05;;;;;;;6.28;4.97;;;22.30;68.00;;;;;;4671634;30;20054;-73
2021/06/17 04:04:32;;;;;;;5.75;5.03;;;22.20;68.10;;;;;;4685761;30;20064;-73
2021/06/17 04:07:04;;;;;;;5.80;4.70;;;22.20;68.10;;;;;;4688299;30;20612;-73
2021/06/17 04:09:36;;;;;;;6.38;4.93;;;22.20;68.10;;;;;;4674626;30;20053;-73
2021/06/17 04:12:12;;;;;;;5.18;4.30;;;22.30;68.10;;;;;;4686593;30;20053;-73
2021/06/17 04:14:45;;;;;;;6.57;4.72;;;22.30;68.20;;;;;;4690879;30;20060;-73
2021/06/17 04:17:23;;;;;;;5.68;4.65;;;22.20;68.20;;;;;;4689477;30;20059;-73
2021/06/17 04:19:52;;;;;;;6.25;4.72;;;22.30;68.30;;;;;;4692112;30;20049;-73
2021/06/17 04:22:21;;;;;;;5.57;4.75;;;22.20;68.50;;;;;;4690953;30;20503;-73
2021/06/17 04:25:03;;;;;;;6.88;5.07;;;22.20;68.50;;;;;;4691484;30;20721;-73
2021/06/17 04:27:30;;;;;;;6.63;4.88;;;22.20;68.50;;;;;;4675198;30;20079;-73
2021/06/17 04:29:58;;;;;;;5.68;5.07;;;22.30;68.50;;;;;;4692111;30;20060;-74
2021/06/17 04:32:27;;;;;;;6.25;5.28;;;22.30;68.50;;;;;;4693305;30;20132;-73
2021/06/17 04:34:57;;;;;;;7.38;5.45;;;22.40;68.50;;;;;;4691173;30;20046;-73
2021/06/17 04:37:27;;;;;;;6.97;5.07;;;22.50;68.30;;;;;;4675500;30;20081;-73
2021/06/17 04:39:58;;;;;;;6.65;5.13;;;22.50;68.20;;;;;;4681668;30;20057;-73
2021/06/17 04:42:27;;;;;;;6.00;4.95;;;22.50;68.30;;;;;;4702807;30;20080;-73
2021/06/17 04:44:56;;;;;;;5.85;4.88;;;22.50;68.30;;;;;;4691669;30;20061;-68
2021/06/17 04:47:23;;;;;;;6.63;5.13;;;22.60;68.30;;;;;;4690641;30;20049;-68
2021/06/17 04:49:51;;;;;;;5.88;5.07;;;22.60;68.30;;;;;;4690180;30;20045;-67
2021/06/17 04:52:27;;;;;;;7.22;5.15;;;22.60;68.10;;;;;;4683330;30;21128;-67
2021/06/17 04:54:54;;;;;;;5.22;4.68;;;22.70;68.00;;;;;;4672608;30;20100;-68
2021/06/17 04:57:20;;;;;;;6.05;5.03;;;22.70;67.90;;;;;;4694447;30;20178;-69
2021/06/17 04:59:47;;;;;;;6.90;4.88;;;22.80;68.50;;;;;;4696622;30;20050;-68
2021/06/17 05:02:14;;;;;;;6.75;5.18;;;22.80;67.70;;;;;;4699671;30;20135;-68
2021/06/17 05:04:41;;;;;;;5.22;4.60;;;22.90;67.50;;;;;;4700367;30;20546;-68
2021/06/17 05:12:22;;;;;;;7.00;5.05;;;23.10;67.10;;;;;;4694124;30;20476;-68
2021/06/17 05:14:49;;;;;;;5.90;4.63;;;23.20;66.90;;;;;;4701511;30;20053;-68
2021/06/17 05:17:16;;;;;;;6.53;5.40;;;23.30;66.80;;;;;;4677692;30;20081;-69
2021/06/17 05:19:43;;;;;;;5.97;5.13;;;23.30;66.60;;;;;;4698968;30;20046;-69
2021/06/17 05:22:11;;;;;;;6.00;5.13;;;23.40;66.50;;;;;;4679590;30;20125;-68
2021/06/17 05:24:39;;;;;;;6.38;4.82;;;23.50;66.40;;;;;;4679861;30;20052;-68
2021/06/17 05:27:07;;;;;;;5.88;4.75;;;23.60;66.30;;;;;;4704661;30;20049;-68
2021/06/17 05:29:34;;;;;;;7.10;5.63;;;23.60;66.10;;;;;;4681545;30;20117;-68
2021/06/17 05:32:01;;;;;;;6.82;4.93;;;23.70;65.90;;;;;;4699357;30;20062;-68
2021/06/17 05:34:28;;;;;;;5.60;5.00;;;23.80;65.70;;;;;;4696203;30;20132;-68
2021/06/17 05:36:55;;;;;;;7.90;5.30;;;23.90;65.60;;;;;;4701429;30;20046;-68
2021/06/17 05:39:22;;;;;;;6.20;5.20;;;24.00;65.40;;;;;;4697629;30;20079;-68
2021/06/17 05:41:49;;;;;;;6.60;4.82;;;24.00;65.20;;;;;;4677505;30;20152;-68
2021/06/17 05:44:16;;;;;;;7.60;5.80;;;24.10;65.00;;;;;;4705427;30;20041;-68
2021/06/17 05:46:43;;;;;;;6.80;5.03;;;24.20;64.90;;;;;;4681805;30;20054;-68
2021/06/17 05:49:10;;;;;;;6.72;5.10;;;24.30;64.70;;;;;;4699147;30;20379;-68
2021/06/17 05:51:37;;;;;;;6.57;4.40;;;24.40;64.50;;;;;;4693173;30;20105;-68
2021/06/17 05:54:04;;;;;;;5.38;3.63;;;24.50;64.40;;;;;;4689231;30;20069;-68
2021/06/17 05:56:31;;;;;;;6.40;4.22;;;24.60;64.20;;;;;;4705746;30;20500;-74
2021/06/17 05:58:58;;;;;;;5.40;3.88;;;24.70;64.00;;;;;;4686378;30;20050;-73
2021/06/17 06:01:26;;;;;;;4.60;3.85;;;24.80;63.90;;;;;;4698447;30;20052;-72
2021/06/17 06:03:53;;;;;;;4.43;3.60;;;24.80;63.60;;;;;;4679129;30;20572;-72
2021/06/17 06:06:20;;;;;;;4.55;3.53;;;25.00;63.50;;;;;;4689111;30;20049;-72
2021/06/17 06:08:47;;;;;;;4.55;3.22;;;25.00;63.30;;;;;;4679471;30;20041;-72
2021/06/17 06:11:18;;;;;;;3.72;3.05;;;25.10;63.20;;;;;;4685470;30;20072;-72
2021/06/17 06:13:46;;;;;;;3.33;2.53;;;25.20;63.00;;;;;;4689528;30;20469;-72
2021/06/17 06:16:13;;;;;;;4.32;2.83;;;25.30;62.90;;;;;;4662817;30;20046;-72
2021/06/17 06:18:41;;;;;;;5.50;3.10;;;25.40;62.70;;;;;;4683271;30;20129;-72
2021/06/17 06:21:08;;;;;;;5.25;2.70;;;25.50;62.50;;;;;;4656256;30;20151;-72
2021/06/17 06:23:35;;;;;;;3.85;2.40;;;25.60;62.30;;;;;;4671226;30;20061;-72
2021/06/17 06:26:02;;;;;;;3.88;3.03;;;25.60;62.10;;;;;;4690804;30;20693;-73
2021/06/17 06:28:31;;;;;;;4.60;3.17;;;25.70;61.90;;;;;;4676706;30;20046;-72
2021/06/17 06:30:58;;;;;;;3.53;2.78;;;25.80;61.80;;;;;;4679813;30;20053;-73
2021/06/17 06:33:25;;;;;;;6.28;3.47;;;25.90;61.70;;;;;;4677784;30;20046;-73
2021/06/17 06:35:53;;;;;;;3.55;2.83;;;26.00;61.60;;;;;;4680940;30;20501;-73
2021/06/17 06:38:20;;;;;;;3.13;2.50;;;26.00;61.40;;;;;;4680199;30;20085;-73
2021/06/17 06:40:47;;;;;;;4.32;2.63;;;26.10;61.30;;;;;;4670092;30;20448;-73
2021/06/17 06:43:16;;;;;;;3.58;2.95;;;26.30;61.20;;;;;;4688386;30;20038;-73
2021/06/17 06:45:43;;;;;;;3.60;2.85;;;26.30;61.00;;;;;;4681640;30;20061;-73
2021/06/17 06:48:10;;;;;;;3.17;2.25;;;26.40;60.80;;;;;;4684956;30;20056;-73
2021/06/17 06:50:38;;;;;;;4.63;2.78;;;26.50;60.60;;;;;;4685215;30;20041;-73
2021/06/17 06:53:05;;;;;;;3.20;2.63;;;26.60;60.40;;;;;;4675819;30;20109;-73
2021/06/17 06:55:32;;;;;;;4.00;3.08;;;26.80;60.20;;;;;;4685906;30;20444;-73
2021/06/17 06:58:00;;;;;;;3.83;2.92;;;26.90;59.90;;;;;;4682155;30;20050;-74
2021/06/17 07:00:27;;;;;;;2.58;1.90;;;27.10;59.60;;;;;;4686834;30;20081;-73
2021/06/17 07:02:54;;;;;;;4.78;3.30;;;27.40;59.30;;;;;;4684336;30;20042;-73
2021/06/17 07:05:21;;;;;;;3.75;2.38;;;27.50;59.00;;;;;;4694571;30;20128;-73
2021/06/17 07:07:48;;;;;;;4.95;2.53;;;27.60;58.80;;;;;;4689050;30;20049;-73
2021/06/17 07:10:15;;;;;;;3.50;2.80;;;27.70;58.80;;;;;;4693873;30;20488;-73
2021/06/17 07:12:43;;;;;;;3.80;2.92;;;27.70;58.60;;;;;;4680228;30;20099;-73
2021/06/17 07:15:11;;;;;;;4.25;2.65;;;27.70;58.50;;;;;;4662565;30;20588;-73
2021/06/17 07:17:38;;;;;;;4.00;2.90;;;27.70;58.40;;;;;;4701499;30;20049;-73
2021/06/17 07:20:07;;;;;;;4.75;2.70;;;27.70;58.40;;;;;;4696265;30;20041;-73
2021/06/17 07:22:35;;;;;;;2.80;2.47;;;27.70;58.60;;;;;;4698129;30;20483;-73
2021/06/17 07:25:02;;;;;;;3.30;2.60;;;27.60;58.70;;;;;;4693722;30;20049;-73
2021/06/17 07:27:31;;;;;;;3.70;2.40;;;27.60;58.70;;;;;;4698173;30;20197;-73
2021/06/17 07:29:58;;;;;;;4.60;2.72;;;27.50;58.70;;;;;;4687055;30;20045;-74
2021/06/17 07:32:25;;;;;;;2.53;1.90;;;27.50;58.70;;;;;;4698568;30;20050;-73
2021/06/17 07:34:52;;;;;;;2.47;2.03;;;27.60;58.60;;;;;;4680318;30;20115;-73
2021/06/17 07:37:19;;;;;;;3.28;2.47;;;27.70;58.40;;;;;;4687869;30;20057;-73
2021/06/17 07:39:46;;;;;;;3.30;2.45;;;27.70;58.20;;;;;;4692258;30;20046;-73
2021/06/17 07:42:14;;;;;;;3.45;2.42;;;27.70;58.20;;;;;;4695612;30;20460;-73
2021/06/17 07:44:41;;;;;;;2.83;2.08;;;27.70;58.10;;;;;;4670623;30;20474;-73
2021/06/17 07:47:08;;;;;;;3.20;2.05;;;27.80;57.90;;;;;;4676947;30;20053;-73
2021/06/17 07:49:35;;;;;;;3.75;2.50;;;27.90;57.70;;;;;;4691483;30;20054;-73
2021/06/17 07:52:02;;;;;;;3.72;2.60;;;28.10;57.30;;;;;;4670321;30;20480;-73
2021/06/17 07:54:29;;;;;;;4.32;2.92;;;28.20;57.00;;;;;;4687093;30;20135;-73
2021/06/17 07:56:57;;;;;;;4.15;2.60;;;28.30;56.60;;;;;;4660812;30;20115;-73
2021/06/17 07:59:26;;;;;;;2.85;2.35;;;28.30;56.40;;;;;;4686057;30;20049;-73
2021/06/17 08:01:53;;;;;;;2.75;2.40;;;28.40;56.50;;;;;;4696509;30;20144;-73
2021/06/17 08:04:21;;;;;;;3.42;2.42;;;28.50;56.20;;;;;;4700795;30;20061;-73
2021/06/17 08:06:48;;;;;;;2.85;2.25;;;28.60;56.00;;;;;;4687849;30;20065;-73
2021/06/17 08:09:18;;;;;;;3.53;2.20;;;28.70;55.70;;;;;;4669086;30;20073;-73
2021/06/17 08:11:50;;;;;;;4.07;2.40;;;28.90;55.60;;;;;;4666715;30;20061;-74
2021/06/17 08:14:25;;;;;;;3.20;2.47;;;29.00;55.10;;;;;;4681067;30;20496;-73
2021/06/17 08:16:54;;;;;;;3.42;2.25;;;29.10;54.80;;;;;;4649839;30;20046;-73
2021/06/17 08:19:28;;;;;;;2.65;2.00;;;29.20;54.50;;;;;;4696606;30;20088;-73
2021/06/17 08:22:03;;;;;;;2.75;1.77;;;29.30;54.00;;;;;;4681546;30;20056;-73
2021/06/17 08:24:31;;;;;;;3.30;2.22;;;29.40;53.60;;;;;;4697631;30;20045;-73
2021/06/17 08:26:58;;;;;;;3.28;2.58;;;29.50;53.10;;;;;;4682300;30;20080;-74
2021/06/17 08:29:25;;;;;;;3.58;2.67;;;29.60;52.60;;;;;;4684602;30;20057;-74
2021/06/17 08:31:52;;;;;;;3.63;2.72;;;29.60;52.40;;;;;;4683659;30;20049;-72
2021/06/17 08:34:19;;;;;;;3.78;2.60;;;29.70;52.10;;;;;;4682525;30;20076;-73
2021/06/17 08:36:46;;;;;;;3.30;2.22;;;29.90;52.00;;;;;;4680105;30;20410;-73
2021/06/17 08:39:13;;;;;;;3.75;2.30;;;29.90;51.60;;;;;;4671881;30;20053;-73
2021/06/17 08:41:40;;;;;;;2.83;2.13;;;30.00;51.70;;;;;;4683155;30;20055;-73
2021/06/17 08:44:07;;;;;;;3.17;2.20;;;30.10;51.50;;;;;;4682605;30;20545;-73
2021/06/17 08:46:34;;;;;;;2.83;2.22;;;30.20;51.20;;;;;;4684850;30;20064;-74
2021/06/17 08:49:02;;;;;;;3.80;2.55;;;30.20;51.10;;;;;;4668923;30;20133;-73
2021/06/17 08:51:32;;;;;;;3.22;2.78;;;30.30;50.90;;;;;;4688166;30;20471;-74
2021/06/17 08:53:59;;;;;;;3.72;2.33;;;30.40;50.50;;;;;;4682850;30;20057;-74
2021/06/17 08:56:27;;;;;;;3.33;2.58;;;30.40;50.20;;;;;;4683073;30;20099;-73
2021/06/17 08:58:56;;;;;;;3.85;2.45;;;30.40;50.20;;;;;;4682171;30;20454;-73
2021/06/17 09:01:24;;;;;;;3.80;2.63;;;30.40;50.20;;;;;;4684720;30;20065;-74
2021/06/17 09:03:52;;;;;;;3.38;2.20;;;30.40;49.70;;;;;;4696393;30;20061;-73
2021/06/17 09:06:23;;;;;;;4.20;3.15;;;30.40;49.70;;;;;;4681263;30;20065;-73
2021/06/17 09:08:58;;;;;;;3.22;2.50;;;30.50;49.20;;;;;;4688099;30;20111;-73
2021/06/17 09:11:27;;;;;;;3.25;2.38;;;30.50;49.30;;;;;;4681434;30;20045;-73
2021/06/17 09:14:18;;;;;;;2.97;2.17;;;30.50;49.40;;;;;;4681244;30;20057;-73
2021/06/17 09:17:07;;;;;;;2.35;1.98;;;30.60;49.20;;;;;;4686282;30;20107;-73
2021/06/17 09:19:52;;;;;;;3.28;2.22;;;30.70;49.20;;;;;;4693727;30;20491;-73
2021/06/17 09:22:27;;;;;;;2.60;1.67;;;30.80;48.70;;;;;;4693736;30;20061;-73
2021/06/17 09:24:56;;;;;;;3.05;2.15;;;30.80;48.80;;;;;;4682873;30;20068;-74
2021/06/17 09:27:39;;;;;;;2.83;1.90;;;30.80;48.70;;;;;;4693459;30;20096;-73
2021/06/17 09:30:10;;;;;;;1.92;1.50;;;31.00;48.70;;;;;;4688725;30;20067;-76
2021/06/17 09:32:50;;;;;;;2.72;1.70;;;31.20;48.80;;;;;;4701213;30;20069;-75
2021/06/17 09:35:20;;;;;;;3.10;1.55;;;31.30;48.60;;;;;;4705220;30;20145;-74
2021/06/17 09:37:48;;;;;;;2.08;1.35;;;31.40;48.50;;;;;;4677335;30;20061;-74
2021/06/17 09:40:32;;;;;;;1.90;1.50;;;31.60;48.40;;;;;;4702661;30;20057;-74
2021/06/17 09:43:12;;;;;;;1.98;1.35;;;31.70;48.20;;;;;;4682504;30;20045;-74
2021/06/17 09:45:40;;;;;;;1.92;1.48;;;31.80;48.10;;;;;;4672744;30;20101;-74
2021/06/17 09:48:28;;;;;;;1.77;1.27;;;31.90;48.00;;;;;;4682636;30;20054;-73
2021/06/17 09:50:55;;;;;;;1.40;1.05;;;32.10;48.00;;;;;;4679936;30;20064;-74
2021/06/17 09:53:27;;;;;;;2.63;1.13;;;32.10;47.80;;;;;;4682878;30;20041;-75
2021/06/17 09:55:54;;;;;;;1.55;1.13;;;32.20;47.70;;;;;;4677299;30;20371;-74
2021/06/17 09:58:38;;;;;;;1.75;1.30;;;32.20;47.60;;;;;;4684167;30;20037;-75
2021/06/17 10:01:11;;;;;;;1.88;1.13;;;32.30;47.30;;;;;;4675602;30;20530;-74
2021/06/17 10:03:40;;;;;;;1.98;1.48;;;32.30;47.20;;;;;;4684639;30;20049;-76
2021/06/17 10:06:28;;;;;;;1.98;1.33;;;32.40;47.10;;;;;;4677211;30;20496;-74
2021/06/17 10:08:55;;;;;;;1.60;1.23;;;32.50;47.00;;;;;;4697919;30;20073;-74
2021/06/17 10:11:22;;;;;;;2.78;1.73;;;32.60;47.00;;;;;;4701511;30;20465;-75
2021/06/17 10:13:53;;;;;;;1.90;1.48;;;32.70;46.70;;;;;;4692872;30;20123;-75
2021/06/17 10:16:20;;;;;;;3.50;1.80;;;32.80;46.60;;;;;;4688311;30;20058;-75
2021/06/17 10:18:51;;;;;;;2.83;1.50;;;32.80;46.40;;;;;;4686478;30;20057;-74
2021/06/17 10:21:18;;;;;;;2.78;1.58;;;32.90;46.40;;;;;;4689621;30;20123;-75
2021/06/17 10:23:47;;;;;;;2.83;1.85;;;32.90;46.10;;;;;;4682519;30;20049;-75
2021/06/17 10:26:19;;;;;;;3.22;2.00;;;32.90;46.10;;;;;;4669006;30;20061;-75
2021/06/17 10:28:49;;;;;;;4.03;2.28;;;33.00;46.10;;;;;;4671530;30;20081;-74
2021/06/17 10:31:41;;;;;;;2.90;2.25;;;33.00;46.10;;;;;;4681474;30;20049;-74
2021/06/17 10:34:24;;;;;;;3.40;2.08;;;33.10;45.90;;;;;;4699483;30;20048;-75
2021/06/17 10:37:11;;;;;;;4.75;3.03;;;33.20;45.80;;;;;;4684404;30;20150;-74
2021/06/17 10:39:40;;;;;;;3.78;2.35;;;33.20;45.70;;;;;;4683445;30;20064;-74
2021/06/17 10:42:15;;;;;;;2.65;2.17;;;33.30;45.90;;;;;;4693584;30;20052;-75
2021/06/17 10:44:54;;;;;;;2.53;1.92;;;33.40;45.80;;;;;;4701577;30;20045;-75
2021/06/17 10:50:08;;;;;;;2.47;2.00;;;33.70;45.70;;;;;;4686703;30;20049;-74
2021/06/17 10:52:38;;;;;;;2.83;1.92;;;33.70;45.60;;;;;;4698490;30;20411;-75
2021/06/17 10:55:08;;;;;;;2.42;2.00;;;33.80;45.50;;;;;;4687895;30;20061;-75
2021/06/17 10:57:51;;;;;;;2.70;2.17;;;33.90;45.40;;;;;;4683539;30;20618;-74
2021/06/17 11:00:30;;;;;;;2.90;1.70;;;34.10;45.30;;;;;;4693852;30;20045;-75
2021/06/17 11:03:01;;;;;;;2.47;1.90;;;34.20;45.10;;;;;;4698170;30;20052;-74
2021/06/17 11:05:31;;;;;;;2.70;2.00;;;34.10;45.10;;;;;;4707413;30;20053;-75
2021/06/17 11:08:13;;;;;;;3.08;2.25;;;34.10;45.20;;;;;;4684120;30;20553;-73
2021/06/17 11:10:45;;;;;;;1.90;1.70;;;34.20;45.10;;;;;;4682668;30;20049;-73
2021/06/17 11:13:32;;;;;;;3.25;2.03;;;34.20;45.10;;;;;;4679017;30;20053;-73
2021/06/17 11:16:06;;;;;;;3.10;1.90;;;34.00;45.10;;;;;;4698441;30;20057;-73
2021/06/17 11:18:44;;;;;;;3.00;2.17;;;34.00;45.30;;;;;;4690286;30;20426;-73
2021/06/17 11:21:34;;;;;;;3.65;2.47;;;33.90;45.50;;;;;;4681365;30;20046;-74
2021/06/17 11:24:07;;;;;;;2.72;2.28;;;33.80;45.60;;;;;;4697819;30;20069;-73
2021/06/17 11:26:44;;;;;;;2.42;1.92;;;33.60;45.70;;;;;;4675281;30;20121;-74
2021/06/17 11:29:36;;;;;;;2.97;2.22;;;33.70;45.80;;;;;;4684188;30;20042;-73
2021/06/17 11:32:22;;;;;;;2.97;1.90;;;33.80;45.70;;;;;;4685886;30;20057;-73
2021/06/17 11:34:50;;;;;;;3.08;2.10;;;33.90;45.60;;;;;;4690044;30;20057;-73
2021/06/17 11:37:17;;;;;;;2.53;2.20;;;34.00;45.30;;;;;;4684120;30;20092;-74
2021/06/17 11:39:47;;;;;;;4.20;2.53;;;34.10;45.30;;;;;;4667796;30;20419;-73
2021/06/17 11:42:20;;;;;;;3.30;2.13;;;34.30;45.20;;;;;;4700017;30;20524;-73
2021/06/17 11:45:03;;;;;;;3.28;2.72;;;34.50;45.10;;;;;;4682635;30;20526;-73
2021/06/17 11:47:30;;;;;;;2.85;2.10;;;34.60;44.70;;;;;;4689959;30;20050;-78
2021/06/17 11:50:06;;;;;;;4.55;3.15;;;34.70;44.50;;;;;;4698785;30;20071;-72
2021/06/17 11:52:39;;;;;;;3.47;2.63;;;34.70;43.90;;;;;;4683894;30;20057;-72
2021/06/17 11:55:08;;;;;;;4.05;2.90;;;34.90;43.90;;;;;;4685923;30;20041;-73
2021/06/17 11:57:40;;;;;;;3.00;2.40;;;35.10;43.70;;;;;;4701320;30;20049;-73
2021/06/17 12:00:09;;;;;;;;;;;35.50;43.90;;;;;;4698072;30;20049;-72
2021/06/17 12:02:48;;;;;;;3.72;3.20;;;35.70;42.80;;;;;;4687344;30;20029;-72
2021/06/17 12:05:20;;;;;;;4.18;2.70;;;36.10;42.50;;;;;;4707001;30;20152;-73
2021/06/17 12:07:48;;;;;;;4.57;3.05;;;36.40;41.90;;;;;;4707110;30;20053;-72
2021/06/17 12:10:20;;;;;;;3.42;2.50;;;36.60;41.70;;;;;;4683980;30;20049;-71
2021/06/17 12:12:59;;;;;;;3.67;2.53;;;37.00;41.40;;;;;;4686985;30;20054;-72
2021/06/17 12:15:28;;;;;;;3.58;2.90;;;37.40;40.90;;;;;;4675352;30;20082;-71
2021/06/17 12:18:00;;;;;;;3.53;2.58;;;37.30;40.90;;;;;;4673220;30;20061;-82
2021/06/17 12:20:33;;;;;;;3.75;2.65;;;37.30;41.00;;;;;;4700013;30;20084;-72
2021/06/17 12:23:00;;;;;;;4.82;2.53;;;37.20;40.50;;;;;;4685938;30;20065;-72
2021/06/17 12:25:30;;;;;;;2.92;2.60;;;37.00;40.30;;;;;;4679657;30;20045;-71
2021/06/17 12:28:01;;;;;;;3.10;2.80;;;37.10;39.80;;;;;;4692649;30;20196;-72
2021/06/17 12:30:36;;;;;;;2.95;2.05;;;37.50;39.30;;;;;;4687152;30;20517;-71
2021/06/17 12:33:07;;;;;;;2.10;1.73;;;37.80;39.00;;;;;;4678215;30;20049;-72
2021/06/17 12:35:42;;;;;;;3.13;1.70;;;38.00;38.60;;;;;;4700674;30;20053;-71
2021/06/17 12:38:10;;;;;;;2.42;1.92;;;38.30;38.50;;;;;;4697916;30;20399;-71
2021/06/17 12:40:39;;;;;;;1.90;1.45;;;38.70;37.70;;;;;;4687601;30;20045;-71
2021/06/17 12:43:21;;;;;;;3.50;1.70;;;38.90;37.40;;;;;;4686167;30;20503;-71
2021/06/17 12:46:07;;;;;;;2.70;1.10;;;39.30;37.20;;;;;;4700249;30;20049;-71
2021/06/17 12:54:22;;;;;;;2.90;1.33;;;39.20;36.80;;;;;;4701397;30;20484;-71
2021/06/17 12:57:05;;;;;;;2.65;1.20;;;39.50;36.20;;;;;;4703032;30;20511;-72
2021/06/17 12:59:42;;;;;;;1.35;0.93;;;39.80;35.70;;;;;;4683120;30;20498;-72
2021/06/17 13:02:12;;;;;;;3.55;1.10;;;39.90;35.50;;;;;;4683666;30;20061;-72
2021/06/17 13:04:39;;;;;;;2.47;1.00;;;39.90;34.90;;;;;;4702610;30;20069;-72
2021/06/17 13:07:18;;;;;;;1.65;1.13;;;40.00;34.60;;;;;;4695580;30;20077;-72
2021/06/17 13:09:46;;;;;;;2.97;1.35;;;40.10;34.60;;;;;;4681748;30;20117;-71
2021/06/17 13:12:27;;;;;;;2.38;1.40;;;40.30;34.50;;;;;;4683035;30;20515;-71
2021/06/17 13:15:04;;;;;;;2.33;1.00;;;40.30;34.20;;;;;;4686703;30;20056;-71
2021/06/17 13:17:33;;;;;;;1.35;1.10;;;40.30;34.10;;;;;;4686992;30;20502;-74
2021/06/17 13:20:01;;;;;;;1.92;1.00;;;40.50;33.90;;;;;;4700761;30;20046;-75